createdAt,value
2022-11-22T00:01:17.909Z,98868.38
2022-11-22T00:03:48.159Z,98868.03
2022-11-22T00:06:16.399Z,98843.16
2022-11-22T00:08:44.652Z,98855.00
2022-11-22T00:11:14.015Z,98843.59
2022-11-22T00:13:41.916Z,98840.13
2022-11-22T00:16:09.951Z,98835.03
2022-11-22T00:18:37.962Z,98836.63
2022-11-22T00:21:08.518Z,98832.59
2022-11-22T00:23:36.585Z,98833.56
2022-11-22T00:26:04.684Z,98830.34
2022-11-22T00:28:33.986Z,98832.75
2022-11-22T00:31:02.073Z,98836.38
2022-11-22T00:33:29.978Z,98833.94
2022-11-22T00:35:58.041Z,98816.19
2022-11-22T00:38:26.409Z,98838.66
2022-11-22T00:40:54.393Z,98831.88
2022-11-22T00:43:22.434Z,98829.78
2022-11-22T00:45:51.939Z,98843.63
2022-11-22T00:48:19.896Z,98849.22
2022-11-22T00:50:49.965Z,98848.34
2022-11-22T00:53:17.982Z,98855.91
2022-11-22T00:55:48.821Z,98833.34
2022-11-22T00:58:18.113Z,98834.47
2022-11-22T01:00:55.029Z,98820.97
2022-11-22T01:03:29.775Z,98809.19
2022-11-22T01:06:01.378Z,98806.31
2022-11-22T01:08:29.387Z,98807.94
2022-11-22T01:10:59.029Z,98792.38
2022-11-22T01:13:27.246Z,98822.22
2022-11-22T01:15:57.935Z,98803.50
2022-11-22T01:18:28.715Z,98786.06
2022-11-22T01:20:57.289Z,98789.84
2022-11-22T01:23:26.161Z,98791.03
2022-11-22T01:25:54.852Z,98805.03
2022-11-22T01:28:24.351Z,98782.09
2022-11-22T01:30:54.660Z,98821.81
2022-11-22T01:33:29.269Z,98775.16
2022-11-22T01:36:01.175Z,98806.59
2022-11-22T01:38:31.924Z,98788.59
2022-11-22T01:41:00.390Z,98793.22
2022-11-22T01:43:30.176Z,98791.38
2022-11-22T01:45:59.524Z,98795.03
2022-11-22T01:48:46.622Z,98797.00
2022-11-22T01:51:22.124Z,98805.78
2022-11-22T01:53:53.910Z,98805.28
2022-11-22T01:56:23.722Z,98784.88
2022-11-22T01:58:55.641Z,98827.78
2022-11-22T02:01:29.799Z,98796.44
2022-11-22T02:03:58.584Z,98816.19
2022-11-22T02:06:38.631Z,98831.41
2022-11-22T02:09:11.644Z,98807.00
2022-11-22T02:11:45.082Z,98817.28
2022-11-22T02:14:15.061Z,98810.50
2022-11-22T02:17:07.031Z,98812.84
2022-11-22T02:19:41.971Z,98814.13
2022-11-22T02:22:19.799Z,98812.25
2022-11-22T02:24:53.582Z,98818.25
2022-11-22T02:27:25.558Z,98791.28
2022-11-22T02:29:57.746Z,98809.22
2022-11-22T02:32:26.085Z,98792.28
2022-11-22T02:34:54.056Z,98810.06
2022-11-22T02:37:25.942Z,98806.63
2022-11-22T02:39:58.106Z,98817.09
2022-11-22T02:42:28.067Z,98808.94
2022-11-22T02:44:59.196Z,98825.09
2022-11-22T02:47:27.833Z,98826.13
2022-11-22T02:50:03.380Z,98809.59
2022-11-22T02:52:31.544Z,98821.63
2022-11-22T02:55:02.337Z,98826.28
2022-11-22T02:57:32.686Z,98799.78
2022-11-22T03:00:01.936Z,98821.63
2022-11-22T03:02:30.960Z,98824.53
2022-11-22T03:04:59.186Z,98833.38
2022-11-22T03:07:37.580Z,98835.63
2022-11-22T03:10:06.014Z,98820.88
2022-11-22T03:12:54.726Z,98830.72
2022-11-22T03:15:22.803Z,98840.53
2022-11-22T03:17:51.902Z,98830.94
2022-11-22T03:20:20.276Z,98825.00
2022-11-22T03:22:53.837Z,98831.06
2022-11-22T03:25:22.581Z,98830.66
2022-11-22T03:27:52.204Z,98812.72
2022-11-22T03:30:20.993Z,98824.19
2022-11-22T03:32:51.462Z,98812.34
2022-11-22T03:35:19.663Z,98807.84
2022-11-22T03:37:48.085Z,98813.97
2022-11-22T03:40:22.400Z,98790.88
2022-11-22T03:42:51.765Z,98809.28
2022-11-22T03:45:27.039Z,98807.03
2022-11-22T03:47:58.307Z,98791.06
2022-11-22T03:50:27.539Z,98795.56
2022-11-22T03:53:08.473Z,98799.44
2022-11-22T03:55:37.027Z,98808.66
2022-11-22T03:58:09.322Z,98800.06
2022-11-22T04:00:43.225Z,98798.66
2022-11-22T04:03:14.587Z,98825.63
2022-11-22T04:05:44.619Z,98815.19
2022-11-22T04:08:15.533Z,98784.13
2022-11-22T04:10:44.301Z,98807.25
2022-11-22T04:13:14.710Z,98812.34
2022-11-22T04:15:44.233Z,98810.72
2022-11-22T04:18:12.587Z,98802.31
2022-11-22T04:24:10.339Z,98808.25
2022-11-22T04:26:40.163Z,98793.94
2022-11-22T04:29:12.090Z,98815.22
2022-11-22T04:31:58.559Z,98793.53
2022-11-22T04:34:32.612Z,98800.91
2022-11-22T04:37:01.084Z,98801.50
2022-11-22T04:39:29.777Z,98820.09
2022-11-22T04:42:13.572Z,98816.63
2022-11-22T04:44:45.943Z,98815.00
2022-11-22T04:47:50.481Z,98817.25
2022-11-22T04:50:44.004Z,98813.97
2022-11-22T04:53:12.394Z,98790.69
2022-11-22T04:55:41.083Z,98807.44
2022-11-22T04:58:11.523Z,98780.88
2022-11-22T05:00:41.739Z,98797.84
2022-11-22T05:03:13.058Z,98796.34
2022-11-22T05:05:42.807Z,98831.25
2022-11-22T05:08:12.164Z,98812.47
2022-11-22T05:10:58.091Z,98799.84
2022-11-22T05:13:28.218Z,98816.97
2022-11-22T05:16:01.110Z,98807.22
2022-11-22T05:18:29.537Z,98804.34
2022-11-22T05:20:57.498Z,98811.69
2022-11-22T05:23:44.216Z,98791.06
2022-11-22T05:26:12.267Z,98782.50
2022-11-22T05:28:46.274Z,98807.66
2022-11-22T05:31:19.135Z,98796.00
2022-11-22T05:33:50.100Z,98776.28
2022-11-22T05:36:18.290Z,98785.72
2022-11-22T05:38:50.069Z,98797.31
2022-11-22T05:41:18.324Z,98784.44
2022-11-22T05:43:46.303Z,98786.47
2022-11-22T05:46:24.843Z,98775.84
2022-11-22T05:48:53.876Z,98785.75
2022-11-22T05:51:23.635Z,98776.13
2022-11-22T05:53:52.007Z,98786.56
2022-11-22T06:02:08.986Z,98790.19
2022-11-22T06:04:40.653Z,98762.34
2022-11-22T06:07:24.784Z,98762.34
2022-11-22T06:09:56.730Z,98769.75
2022-11-22T06:12:26.828Z,98757.47
2022-11-22T06:14:55.631Z,98755.06
2022-11-22T06:17:25.022Z,98771.19
2022-11-22T06:19:54.333Z,98774.66
2022-11-22T06:22:26.144Z,98756.69
2022-11-22T06:24:55.032Z,98767.31
2022-11-22T06:27:23.274Z,98773.84
2022-11-22T06:29:51.394Z,98768.09
2022-11-22T06:32:21.670Z,98773.41
2022-11-22T06:35:03.119Z,98755.63
2022-11-22T06:37:33.957Z,98741.97
2022-11-22T06:40:03.174Z,98749.34
2022-11-22T06:42:31.608Z,98736.72
2022-11-22T06:45:01.967Z,98755.47
2022-11-22T06:47:29.943Z,98769.97
2022-11-22T06:50:04.505Z,98766.44
2022-11-22T06:52:41.290Z,98776.19
2022-11-22T06:55:42.366Z,98765.47
2022-11-22T06:58:08.894Z,98774.97
2022-11-22T07:00:46.464Z,98772.63
2022-11-22T07:03:15.213Z,98755.41
2022-11-22T07:06:01.783Z,98763.53
2022-11-22T07:08:31.668Z,98760.75
2022-11-22T07:11:03.891Z,98759.88
2022-11-22T07:13:34.087Z,98763.75
2022-11-22T07:16:06.154Z,98770.13
2022-11-22T07:18:35.915Z,98766.88
2022-11-22T07:21:17.988Z,98772.41
2022-11-22T07:23:49.129Z,98784.22
2022-11-22T07:26:18.499Z,98781.78
2022-11-22T07:28:50.139Z,98789.91
2022-11-22T07:31:19.677Z,98780.72
2022-11-22T07:33:51.195Z,98774.41
2022-11-22T07:36:23.224Z,98760.16
2022-11-22T07:38:54.495Z,98760.97
2022-11-22T07:41:22.754Z,98763.81
2022-11-22T07:43:50.768Z,98751.19
2022-11-22T07:46:24.836Z,98765.31
2022-11-22T07:48:53.237Z,98776.78
2022-11-22T07:51:33.109Z,98768.41
2022-11-22T07:54:05.333Z,98750.50
2022-11-22T07:56:35.830Z,98761.97
2022-11-22T07:59:10.117Z,98758.97
2022-11-22T08:01:38.812Z,98755.91
2022-11-22T08:04:17.727Z,98757.91
2022-11-22T08:06:49.947Z,98747.31
2022-11-22T08:09:18.236Z,98745.28
2022-11-22T08:11:46.568Z,98732.66
2022-11-22T08:14:14.993Z,98744.50
2022-11-22T08:16:44.328Z,98734.69
2022-11-22T08:19:16.051Z,98739.34
2022-11-22T08:21:47.211Z,98723.22
2022-11-22T08:24:15.312Z,98731.84
2022-11-22T08:26:43.334Z,98729.00
2022-11-22T08:29:14.564Z,98721.88
2022-11-22T08:31:43.131Z,98732.25
2022-11-22T08:34:14.427Z,98736.34
2022-11-22T08:36:42.470Z,98738.03
2022-11-22T08:39:11.845Z,98751.13
2022-11-22T08:41:39.889Z,98753.63
2022-11-22T08:44:08.973Z,98755.66
2022-11-22T08:46:37.029Z,98751.41
2022-11-22T08:49:06.507Z,98755.13
2022-11-22T08:51:35.842Z,98762.66
2022-11-22T08:54:03.992Z,98774.09
2022-11-22T08:56:35.126Z,98793.94
2022-11-22T08:59:03.880Z,98789.22
2022-11-22T09:01:40.742Z,98794.16
2022-11-22T09:04:11.195Z,98790.47
2022-11-22T09:09:37.970Z,98800.25
2022-11-22T09:12:08.946Z,98802.25
2022-11-22T09:14:37.091Z,98809.53
2022-11-22T09:17:12.058Z,98814.63
2022-11-22T09:19:49.127Z,98819.31
2022-11-22T09:22:24.045Z,98834.00
2022-11-22T09:24:55.147Z,98845.44
2022-11-22T09:27:27.916Z,98859.25
2022-11-22T09:29:56.078Z,98868.25
2022-11-22T09:32:29.345Z,98863.78
2022-11-22T09:35:01.431Z,98883.06
2022-11-22T09:37:31.067Z,98871.69
2022-11-22T09:40:02.229Z,98880.16
2022-11-22T09:42:44.478Z,98889.81
2022-11-22T09:45:54.921Z,98878.00
2022-11-22T09:48:31.783Z,98891.13
2022-11-22T09:51:04.115Z,98889.28
2022-11-22T09:53:36.506Z,98902.41
2022-11-22T09:56:05.141Z,98912.41
2022-11-22T09:58:36.548Z,98926.06
2022-11-22T10:01:07.375Z,98925.22
2022-11-22T10:03:42.446Z,98941.75
2022-11-22T10:06:15.349Z,98931.94
2022-11-22T10:08:45.526Z,98951.78
2022-11-22T10:11:19.158Z,98962.53
2022-11-22T10:13:57.166Z,98964.81
2022-11-22T10:16:28.920Z,98963.47
2022-11-22T10:19:00.428Z,98978.22
2022-11-22T10:21:35.049Z,98985.22
2022-11-22T10:24:04.446Z,98986.69
2022-11-22T10:26:33.800Z,98998.97
2022-11-22T10:29:19.340Z,99002.66
2022-11-22T10:31:53.328Z,98997.53
2022-11-22T10:34:35.051Z,98994.47
2022-11-22T10:37:20.342Z,98999.78
2022-11-22T10:44:36.192Z,98996.31
2022-11-22T10:47:40.355Z,98994.44
2022-11-22T11:02:26.668Z,98991.91
2022-11-22T11:11:33.958Z,98993.81
2022-11-22T11:14:42.569Z,99021.44
2022-11-22T11:17:45.173Z,99008.97
2022-11-22T11:21:16.411Z,99003.25
2022-11-22T11:26:58.439Z,99029.28
2022-11-22T11:29:45.824Z,99037.06
2022-11-22T11:32:21.202Z,99042.25
2022-11-22T11:35:13.411Z,99027.72
2022-11-22T11:37:58.412Z,99047.47
2022-11-22T11:51:02.671Z,99068.88
2022-11-22T11:54:20.200Z,99045.09
2022-11-22T11:58:16.255Z,99066.66
2022-11-22T12:11:04.962Z,99090.31
2022-11-22T12:18:28.284Z,99105.56
2022-11-22T12:22:50.034Z,99127.63
2022-11-22T12:30:42.280Z,99119.38
2022-11-22T12:54:29.130Z,99144.84
2022-11-22T12:57:21.054Z,99152.28
2022-11-22T13:05:25.728Z,99131.38
2022-11-22T13:30:25.925Z,99185.94
2022-11-22T13:33:48.520Z,99197.41
2022-11-22T13:37:23.438Z,99208.88
2022-11-22T13:44:15.165Z,99197.00
2022-11-22T13:47:27.054Z,99167.28
2022-11-22T13:50:03.681Z,99159.72
2022-11-22T14:01:20.371Z,99194.19
2022-11-22T14:04:06.765Z,99190.44
2022-11-22T14:06:49.747Z,99171.56
2022-11-22T14:09:45.156Z,99158.47
2022-11-22T14:13:34.047Z,99198.53
2022-11-22T14:17:04.372Z,99199.13
2022-11-22T15:09:21.647Z,99220.16
2022-11-22T16:02:48.097Z,99250.13
2022-11-22T16:23:15.441Z,99272.22
2022-11-22T16:26:05.499Z,99269.63
2022-11-22T16:28:46.166Z,99285.13
2022-11-22T16:40:10.952Z,99283.47
2022-11-22T16:43:00.071Z,99281.53
2022-11-22T16:45:31.026Z,99284.44
2022-11-22T16:48:30.381Z,99287.09
2022-11-22T16:51:08.081Z,99280.53
2022-11-22T16:56:55.155Z,99283.38
2022-11-22T17:00:23.642Z,99286.19
2022-11-22T17:03:02.441Z,99292.09
2022-11-22T17:05:36.221Z,99283.06
2022-11-22T17:08:17.416Z,99286.25
2022-11-22T17:13:39.869Z,99296.03
2022-11-22T17:16:26.235Z,99299.25
2022-11-22T17:18:57.580Z,99296.41
2022-11-22T17:22:01.500Z,99285.38
2022-11-22T17:24:40.665Z,99286.41
2022-11-22T17:27:14.622Z,99289.31
2022-11-22T17:29:54.151Z,99280.31
2022-11-22T17:32:27.209Z,99287.13
2022-11-22T17:38:28.615Z,99281.88
2022-11-22T17:44:58.034Z,99282.31
2022-11-22T18:01:16.705Z,99299.63
2022-11-22T18:08:31.431Z,99304.09
2022-11-22T18:11:47.610Z,99295.94
2022-11-22T18:14:35.163Z,99297.75
2022-11-22T18:17:26.407Z,99304.94
2022-11-22T19:27:51.083Z,99309.75
2022-11-22T20:09:27.753Z,99300.09
2022-11-22T20:36:50.718Z,99305.19
2022-11-22T21:20:16.682Z,99294.19
2022-11-22T21:23:44.749Z,99288.91
2022-11-22T21:30:57.019Z,99305.72
2022-11-22T21:45:18.881Z,99313.25
2022-11-22T21:49:22.419Z,99316.91
2022-11-22T22:11:02.562Z,99301.59
2022-11-22T22:21:40.428Z,99292.47
2022-11-22T22:55:41.777Z,99265.44
2022-11-22T22:58:25.372Z,99277.38
2022-11-22T23:01:08.931Z,99257.69
2022-11-22T23:03:59.119Z,99252.13
2022-11-22T23:06:39.090Z,99253.22
2022-11-22T23:09:09.418Z,99254.13
2022-11-22T23:12:10.327Z,99251.88
2022-11-22T23:14:41.760Z,99225.03
2022-11-22T23:17:17.205Z,99218.91
2022-11-22T23:19:49.082Z,99213.16
2022-11-22T23:26:43.281Z,99210.03
2022-11-22T23:29:19.969Z,99211.75
2022-11-22T23:35:21.190Z,99193.69
2022-11-22T23:38:16.379Z,99192.31
2022-11-22T23:41:28.376Z,99192.31
2022-11-22T23:44:12.287Z,99176.25
2022-11-22T23:47:03.523Z,99154.78
2022-11-22T23:50:31.728Z,99149.28
2022-11-22T23:53:13.433Z,99157.03
2022-11-22T23:55:52.728Z,99151.47
2022-11-22T23:58:27.736Z,99151.81
